createdAt,value
2019-05-23T00:00:20.010Z,13.33
2019-05-23T00:01:14.260Z,14.70
2019-05-23T00:02:03.797Z,15.43
2019-05-23T00:02:48.092Z,14.43
2019-05-23T00:03:27.371Z,13.60
2019-05-23T00:04:18.335Z,13.93
2019-05-23T00:05:17.637Z,13.70
2019-05-23T00:06:04.314Z,14.80
2019-05-23T00:06:40.991Z,14.13
2019-05-23T00:07:19.662Z,13.03
2019-05-23T00:07:55.956Z,13.37
2019-05-23T00:08:32.909Z,14.97
2019-05-23T00:09:10.392Z,13.53
2019-05-23T00:09:47.699Z,14.00
2019-05-23T00:10:39.031Z,13.73
2019-05-23T00:11:33.594Z,13.60
2019-05-23T00:12:32.845Z,14.83
2019-05-23T00:13:15.991Z,16.97
2019-05-23T00:14:00.866Z,15.17
2019-05-23T00:14:44.705Z,13.50
2019-05-23T00:15:28.318Z,13.10
2019-05-23T00:16:07.275Z,13.53
2019-05-23T00:16:44.002Z,14.13
2019-05-23T00:17:21.096Z,14.03
2019-05-23T00:17:57.746Z,13.80
2019-05-23T00:18:36.356Z,13.03
2019-05-23T00:19:13.814Z,13.70
2019-05-23T00:19:51.763Z,13.60
2019-05-23T00:20:28.963Z,13.63
2019-05-23T00:21:05.324Z,13.77
2019-05-23T00:21:42.965Z,15.87
2019-05-23T00:22:20.796Z,13.03
2019-05-23T00:22:57.461Z,13.03
2019-05-23T00:23:33.547Z,13.67
2019-05-23T00:24:11.517Z,14.10
2019-05-23T00:24:48.341Z,13.70
2019-05-23T00:25:25.410Z,14.10
2019-05-23T00:26:03.804Z,15.13
2019-05-23T00:26:41.788Z,15.07
2019-05-23T00:27:18.352Z,13.23
2019-05-23T00:27:56.141Z,13.60
2019-05-23T00:28:32.075Z,14.37
2019-05-23T00:29:10.682Z,14.80
2019-05-23T00:29:48.399Z,13.90
2019-05-23T00:30:40.259Z,14.20
2019-05-23T00:31:21.554Z,14.37
2019-05-23T00:32:05.366Z,13.77
2019-05-23T00:32:53.464Z,14.17
2019-05-23T00:33:31.114Z,13.93
2019-05-23T00:34:08.337Z,13.17
2019-05-23T00:34:45.435Z,14.23
2019-05-23T00:35:21.509Z,13.77
2019-05-23T00:35:59.846Z,13.50
2019-05-23T00:36:35.644Z,13.90
2019-05-23T00:37:14.792Z,14.47
2019-05-23T00:37:52.588Z,13.80
2019-05-23T00:38:28.435Z,14.27
2019-05-23T00:39:07.528Z,14.53
2019-05-23T00:39:46.787Z,13.90
2019-05-23T00:40:23.240Z,13.77
2019-05-23T00:41:00.422Z,13.57
2019-05-23T00:41:37.708Z,14.43
2019-05-23T00:42:13.924Z,13.33
2019-05-23T00:42:52.575Z,13.63
2019-05-23T00:43:30.185Z,13.53
2019-05-23T00:44:06.233Z,14.13
2019-05-23T00:44:43.524Z,15.07
2019-05-23T00:45:21.751Z,13.53
2019-05-23T00:45:57.947Z,13.80
2019-05-23T00:46:34.866Z,14.17
2019-05-23T00:47:11.613Z,14.43
2019-05-23T00:47:49.088Z,13.70
2019-05-23T00:48:25.587Z,13.87
2019-05-23T00:49:03.573Z,14.23
2019-05-23T00:49:39.576Z,13.70
2019-05-23T00:50:18.869Z,13.37
2019-05-23T00:50:54.993Z,15.13
2019-05-23T00:51:31.772Z,14.47
2019-05-23T00:52:09.010Z,14.67
2019-05-23T00:52:45.208Z,14.40
2019-05-23T00:53:20.733Z,14.37
2019-05-23T00:53:57.630Z,14.40
2019-05-23T00:54:35.177Z,15.37
2019-05-23T00:55:12.788Z,14.07
2019-05-23T00:55:49.522Z,15.10
2019-05-23T00:56:26.841Z,13.53
2019-05-23T00:57:03.593Z,13.13
2019-05-23T00:57:42.551Z,14.33
2019-05-23T00:58:19.843Z,15.07
2019-05-23T00:58:56.298Z,14.47
2019-05-23T00:59:33.498Z,17.37
2019-05-23T01:00:11.683Z,14.63
2019-05-23T01:00:49.438Z,14.73
2019-05-23T01:01:26.296Z,13.90
2019-05-23T01:02:03.047Z,15.50
2019-05-23T01:02:39.153Z,16.87
2019-05-23T01:03:17.405Z,14.47
2019-05-23T01:03:55.438Z,15.87
2019-05-23T01:04:31.593Z,14.73
2019-05-23T01:05:10.910Z,14.20
2019-05-23T01:05:47.638Z,13.20
2019-05-23T01:06:23.974Z,16.87
2019-05-23T01:07:00.043Z,15.70
2019-05-23T01:07:36.457Z,14.80
2019-05-23T01:08:12.415Z,14.97
2019-05-23T01:08:49.572Z,14.60
2019-05-23T01:09:28.088Z,18.57
2019-05-23T01:10:05.734Z,15.87
2019-05-23T01:10:42.683Z,14.23
2019-05-23T01:11:19.760Z,14.10
2019-05-23T01:11:55.371Z,14.40
2019-05-23T01:12:31.611Z,15.27
2019-05-23T01:13:09.205Z,16.13
2019-05-23T01:13:46.061Z,13.63
2019-05-23T01:14:22.866Z,15.37
2019-05-23T01:14:59.417Z,15.00
2019-05-23T01:15:36.002Z,13.93
2019-05-23T01:16:14.649Z,14.47
2019-05-23T01:16:51.757Z,14.90
2019-05-23T01:17:29.126Z,15.47
2019-05-23T01:18:06.102Z,13.70
2019-05-23T01:18:42.824Z,15.13
2019-05-23T01:19:19.221Z,16.57
2019-05-23T01:19:56.982Z,15.97
2019-05-23T01:20:51.724Z,18.73
2019-05-23T01:21:37.771Z,14.50
2019-05-23T01:22:15.498Z,16.17
2019-05-23T01:22:53.805Z,14.73
2019-05-23T01:23:32.243Z,15.93
2019-05-23T01:24:14.789Z,15.23
2019-05-23T01:24:55.450Z,14.13
2019-05-23T01:25:33.173Z,14.67
2019-05-23T01:26:10.840Z,14.10
2019-05-23T01:26:48.662Z,14.83
2019-05-23T01:27:25.126Z,14.23
2019-05-23T01:28:01.741Z,14.40
2019-05-23T01:28:38.064Z,14.80
2019-05-23T01:29:14.701Z,16.93
2019-05-23T01:29:51.789Z,15.20
2019-05-23T01:30:31.677Z,16.00
2019-05-23T01:31:11.086Z,17.63
2019-05-23T01:31:48.665Z,15.10
2019-05-23T01:32:32.051Z,14.87
2019-05-23T01:33:07.806Z,16.70
2019-05-23T01:33:44.310Z,14.97
2019-05-23T01:34:22.625Z,15.00
2019-05-23T01:34:59.026Z,15.73
2019-05-23T01:35:36.556Z,14.67
2019-05-23T01:36:13.292Z,15.47
2019-05-23T01:36:49.717Z,16.67
2019-05-23T01:37:27.140Z,15.20
2019-05-23T01:38:04.302Z,16.53
2019-05-23T01:38:40.577Z,14.77
2019-05-23T01:39:17.502Z,15.37
2019-05-23T01:39:54.431Z,18.77
2019-05-23T01:40:31.190Z,15.80
2019-05-23T01:41:07.351Z,16.97
2019-05-23T01:41:44.391Z,17.00
2019-05-23T01:42:20.661Z,15.67
2019-05-23T01:42:57.691Z,16.07
2019-05-23T01:43:33.964Z,15.90
2019-05-23T01:44:10.338Z,15.63
2019-05-23T01:44:48.152Z,16.23
2019-05-23T01:45:24.775Z,15.33
2019-05-23T01:46:00.820Z,17.10
2019-05-23T01:46:37.210Z,17.93
2019-05-23T01:47:15.205Z,16.33
2019-05-23T01:47:52.272Z,14.93
2019-05-23T01:48:29.989Z,16.10
2019-05-23T01:49:06.690Z,16.53
2019-05-23T01:49:42.708Z,16.93
2019-05-23T01:50:21.185Z,17.63
2019-05-23T01:50:58.253Z,15.77
2019-05-23T01:51:34.509Z,16.07
2019-05-23T01:52:12.537Z,17.10
2019-05-23T01:52:49.827Z,16.48
2019-05-23T01:53:26.372Z,16.77
2019-05-23T01:54:03.507Z,16.57
2019-05-23T01:54:39.621Z,16.07
2019-05-23T01:55:15.897Z,15.80
2019-05-23T01:55:52.283Z,16.53
2019-05-23T01:56:29.363Z,17.50
2019-05-23T01:57:05.520Z,16.37
2019-05-23T01:57:41.784Z,17.73
2019-05-23T01:58:18.168Z,17.77
2019-05-23T01:58:54.048Z,17.60
2019-05-23T01:59:30.705Z,18.27
2019-05-23T02:00:11.377Z,16.67
2019-05-23T02:00:47.807Z,17.50
2019-05-23T02:01:24.451Z,18.53
2019-05-23T02:02:00.509Z,17.17
2019-05-23T02:02:38.368Z,17.90
2019-05-23T02:03:15.681Z,17.27
2019-05-23T02:03:53.244Z,17.50
2019-05-23T02:04:28.735Z,16.27
2019-05-23T02:05:05.127Z,15.70
2019-05-23T02:05:42.526Z,17.50
2019-05-23T02:06:18.034Z,17.30
2019-05-23T02:06:54.978Z,16.10
2019-05-23T02:07:31.967Z,16.47
2019-05-23T02:08:10.817Z,17.47
2019-05-23T02:08:47.383Z,18.07
2019-05-23T02:09:24.018Z,17.67
2019-05-23T02:09:59.540Z,16.63
2019-05-23T02:10:35.927Z,18.23
2019-05-23T02:11:13.046Z,16.90
2019-05-23T02:11:49.254Z,18.20
2019-05-23T02:12:26.532Z,17.73
2019-05-23T02:13:02.838Z,17.63
2019-05-23T02:13:39.714Z,17.47
2019-05-23T02:14:17.195Z,17.30
2019-05-23T02:14:53.928Z,18.63
2019-05-23T02:15:29.554Z,18.17
2019-05-23T02:16:05.732Z,17.90
2019-05-23T02:16:42.951Z,18.40
2019-05-23T02:17:19.650Z,18.63
2019-05-23T02:17:57.555Z,18.07
2019-05-23T02:18:33.992Z,16.33
2019-05-23T02:19:13.651Z,20.97
2019-05-23T02:19:49.974Z,18.83
2019-05-23T02:20:26.064Z,19.43
2019-05-23T02:21:02.151Z,20.43
2019-05-23T02:21:38.277Z,18.27
2019-05-23T02:22:14.934Z,22.37
2019-05-23T02:22:51.768Z,19.27
2019-05-23T02:23:28.901Z,21.13
2019-05-23T02:24:05.912Z,18.93
2019-05-23T02:24:42.294Z,18.37
2019-05-23T02:25:22.025Z,19.47
2019-05-23T02:26:00.010Z,19.03
2019-05-23T02:26:37.451Z,18.83
2019-05-23T02:27:15.587Z,17.93
2019-05-23T02:27:53.973Z,18.47
2019-05-23T02:28:31.667Z,21.37
2019-05-23T02:29:08.742Z,19.33
2019-05-23T02:29:45.327Z,19.80
2019-05-23T02:30:33.706Z,19.93
2019-05-23T02:31:00.708Z,20.47
2019-05-23T02:31:36.809Z,19.43
2019-05-23T02:32:13.401Z,21.03
2019-05-23T02:32:50.724Z,19.73
2019-05-23T02:33:26.856Z,19.43
2019-05-23T02:34:02.564Z,18.73
2019-05-23T02:34:39.556Z,19.40
2019-05-23T02:35:17.898Z,18.43
2019-05-23T02:35:53.583Z,18.97
2019-05-23T02:36:30.983Z,19.07
2019-05-23T02:37:12.244Z,19.27
2019-05-23T02:38:06.284Z,18.57
2019-05-23T02:38:59.773Z,19.53
2019-05-23T02:40:03.941Z,21.30
2019-05-23T02:40:46.690Z,20.47
2019-05-23T02:41:46.085Z,19.40
2019-05-23T02:42:41.094Z,18.97
2019-05-23T02:43:19.454Z,18.30
2019-05-23T02:44:00.570Z,18.33
2019-05-23T02:44:36.954Z,18.50
2019-05-23T02:45:18.877Z,17.83
2019-05-23T02:45:59.132Z,21.03
2019-05-23T02:46:43.079Z,19.37
2019-05-23T02:47:38.292Z,18.43
2019-05-23T02:48:22.511Z,20.67
2019-05-23T02:49:03.033Z,20.63
2019-05-23T02:49:41.263Z,20.63
2019-05-23T02:50:26.941Z,19.20
2019-05-23T02:51:07.094Z,21.87
2019-05-23T02:51:44.216Z,20.57
2019-05-23T02:52:40.904Z,19.47
2019-05-23T02:53:20.949Z,21.57
2019-05-23T02:53:59.224Z,20.43
2019-05-23T02:54:37.381Z,20.37
2019-05-23T02:55:27.906Z,21.17
2019-05-23T02:56:08.156Z,22.77
2019-05-23T02:56:46.868Z,21.97
2019-05-23T02:57:25.412Z,22.57
2019-05-23T02:58:07.128Z,18.77
2019-05-23T02:58:56.711Z,20.43
2019-05-23T02:59:41.230Z,21.63
2019-05-23T03:01:00.277Z,21.80
2019-05-23T03:02:14.891Z,18.57
2019-05-23T03:02:58.686Z,19.80
2019-05-23T03:03:37.663Z,20.50
2019-05-23T03:04:18.323Z,22.03
2019-05-23T03:04:54.372Z,18.87
2019-05-23T03:05:31.534Z,19.60
2019-05-23T03:06:12.897Z,18.77
2019-05-23T03:06:49.872Z,19.27
2019-05-23T03:07:29.961Z,19.80
2019-05-23T03:08:08.673Z,18.37
2019-05-23T03:08:45.503Z,18.27
2019-05-23T03:09:24.143Z,17.17
2019-05-23T03:09:59.794Z,19.80
2019-05-23T03:10:57.034Z,17.10
2019-05-23T03:11:40.397Z,16.73
2019-05-23T03:12:18.472Z,18.77
2019-05-23T03:12:56.395Z,16.57
2019-05-23T03:13:34.917Z,18.67
2019-05-23T03:14:11.577Z,19.50
2019-05-23T03:14:49.512Z,18.47
2019-05-23T03:15:28.798Z,18.03
2019-05-23T03:16:06.331Z,16.80
2019-05-23T03:16:45.138Z,16.53
2019-05-23T03:17:25.818Z,15.90
2019-05-23T03:18:04.063Z,16.97
2019-05-23T03:18:43.228Z,16.73
2019-05-23T03:19:29.730Z,15.53
2019-05-23T03:20:08.578Z,17.00
2019-05-23T03:20:45.282Z,18.13
2019-05-23T03:21:21.809Z,19.93
2019-05-23T03:22:01.231Z,19.00
2019-05-23T03:22:49.273Z,16.77
2019-05-23T03:23:25.684Z,19.20
2019-05-23T03:24:01.693Z,20.47
2019-05-23T03:24:37.798Z,16.70
2019-05-23T03:26:01.881Z,18.57
2019-05-23T03:27:01.927Z,17.20
2019-05-23T03:27:42.344Z,18.67
2019-05-23T03:28:21.407Z,18.67
2019-05-23T03:28:58.761Z,16.40
2019-05-23T03:29:35.524Z,16.37
2019-05-23T03:30:16.729Z,18.80
2019-05-23T03:31:21.859Z,17.00
2019-05-23T03:31:42.971Z,17.50
2019-05-23T03:32:39.871Z,17.17
2019-05-23T03:33:17.009Z,16.80
2019-05-23T03:33:53.144Z,20.03
2019-05-23T03:34:31.606Z,20.47
2019-05-23T03:35:15.848Z,18.93
2019-05-23T03:35:53.944Z,19.40
2019-05-23T03:36:31.337Z,17.47
2019-05-23T03:37:07.792Z,18.10
2019-05-23T03:37:44.092Z,19.63
2019-05-23T03:38:20.836Z,19.00
2019-05-23T03:38:57.570Z,17.83
2019-05-23T03:39:35.102Z,17.07
2019-05-23T03:40:12.540Z,19.67
2019-05-23T03:40:49.490Z,20.20
2019-05-23T03:41:25.560Z,17.00
2019-05-23T03:42:02.261Z,18.70
2019-05-23T03:42:39.141Z,17.83
2019-05-23T03:43:17.411Z,21.40
2019-05-23T03:43:54.392Z,18.40
2019-05-23T03:44:31.381Z,16.77
2019-05-23T03:45:09.668Z,18.40
2019-05-23T03:45:50.835Z,19.43
2019-05-23T03:46:29.123Z,25.77
2019-05-23T03:47:07.449Z,18.37
2019-05-23T03:47:46.465Z,19.17
2019-05-23T03:48:24.601Z,19.67
2019-05-23T03:49:00.679Z,18.57
2019-05-23T03:49:37.441Z,18.30
2019-05-23T03:50:15.006Z,17.90
2019-05-23T03:50:52.329Z,19.87
2019-05-23T03:51:29.289Z,18.27
2019-05-23T03:52:06.354Z,18.33
2019-05-23T03:52:42.730Z,18.57
2019-05-23T03:53:19.688Z,18.17
2019-05-23T03:53:56.938Z,17.53
2019-05-23T03:54:32.906Z,17.53
2019-05-23T03:55:09.550Z,21.13
2019-05-23T03:55:48.593Z,17.70
2019-05-23T03:56:25.098Z,19.80
2019-05-23T03:57:01.677Z,18.80
2019-05-23T03:57:38.347Z,17.53
2019-05-23T03:58:14.295Z,18.57
2019-05-23T03:58:51.397Z,19.17
2019-05-23T03:59:28.565Z,21.40
2019-05-23T04:00:06.348Z,19.80
2019-05-23T04:00:57.185Z,20.33
2019-05-23T04:01:46.754Z,18.67
2019-05-23T04:02:15.928Z,22.30
2019-05-23T04:02:52.066Z,20.83
2019-05-23T04:03:30.245Z,19.77
2019-05-23T04:04:06.330Z,23.93
2019-05-23T04:04:43.427Z,21.93
2019-05-23T04:05:20.639Z,25.87
2019-05-23T04:05:57.507Z,25.80
2019-05-23T04:06:34.966Z,27.67
2019-05-23T04:07:11.991Z,20.60
2019-05-23T04:07:48.612Z,24.63
2019-05-23T04:08:25.123Z,23.80
2019-05-23T04:09:02.506Z,26.47
2019-05-23T04:09:38.402Z,25.30
2019-05-23T04:10:14.864Z,20.30
2019-05-23T04:10:52.260Z,18.67
2019-05-23T04:11:28.376Z,22.87
2019-05-23T04:12:05.283Z,21.00
2019-05-23T04:12:42.735Z,20.23
2019-05-23T04:13:18.816Z,20.90
2019-05-23T04:13:56.112Z,19.80
2019-05-23T04:14:32.255Z,22.70
2019-05-23T04:15:09.388Z,22.27
2019-05-23T04:15:45.540Z,21.40
2019-05-23T04:16:22.648Z,19.70
2019-05-23T04:16:58.527Z,20.50
2019-05-23T04:17:35.371Z,20.37
2019-05-23T04:18:12.216Z,20.33
2019-05-23T04:18:48.535Z,21.03
2019-05-23T04:19:25.088Z,19.57
2019-05-23T04:20:01.636Z,21.13
2019-05-23T04:20:37.440Z,19.50
2019-05-23T04:21:14.785Z,19.37
2019-05-23T04:21:51.940Z,20.33
2019-05-23T04:22:28.859Z,20.20
2019-05-23T04:23:06.343Z,20.27
2019-05-23T04:23:43.107Z,18.83
2019-05-23T04:24:19.191Z,19.07
2019-05-23T04:24:55.778Z,20.47
2019-05-23T04:25:32.083Z,23.47
2019-05-23T04:26:08.143Z,20.47
2019-05-23T04:26:44.564Z,19.37
2019-05-23T04:27:21.290Z,21.00
2019-05-23T04:27:57.457Z,19.97
2019-05-23T04:28:33.741Z,22.17
2019-05-23T04:29:11.144Z,21.70
2019-05-23T04:29:47.736Z,22.70
2019-05-23T04:30:23.778Z,20.40
2019-05-23T04:30:59.926Z,19.53
2019-05-23T04:31:36.410Z,21.60
2019-05-23T04:32:12.895Z,19.43
2019-05-23T04:32:49.583Z,21.80
2019-05-23T04:33:25.546Z,22.00
2019-05-23T04:34:02.059Z,21.70
2019-05-23T04:34:38.375Z,22.07
2019-05-23T04:35:14.093Z,19.90
2019-05-23T04:35:50.374Z,21.47
2019-05-23T04:36:26.517Z,18.23
2019-05-23T04:37:02.419Z,22.50
2019-05-23T04:37:38.744Z,20.50
2019-05-23T04:38:16.197Z,22.00
2019-05-23T04:38:51.894Z,21.97
2019-05-23T04:39:29.013Z,22.10
2019-05-23T04:40:06.248Z,20.60
2019-05-23T04:40:41.794Z,20.70
2019-05-23T04:41:18.194Z,23.53
2019-05-23T04:41:54.729Z,20.70
2019-05-23T04:42:30.790Z,22.00
2019-05-23T04:43:07.021Z,20.87
2019-05-23T04:43:43.737Z,20.03
2019-05-23T04:44:19.378Z,21.00
2019-05-23T04:44:55.416Z,19.90
2019-05-23T04:45:33.413Z,22.60
2019-05-23T04:46:09.895Z,22.30
2019-05-23T04:46:46.825Z,19.70
2019-05-23T04:47:24.164Z,20.30
2019-05-23T04:48:00.676Z,23.07
2019-05-23T04:48:37.273Z,20.50
2019-05-23T04:49:14.353Z,23.33
2019-05-23T04:49:50.511Z,20.17
2019-05-23T04:50:28.130Z,24.30
2019-05-23T04:51:06.236Z,25.60
2019-05-23T04:51:42.530Z,23.70
2019-05-23T04:52:19.167Z,21.53
2019-05-23T04:52:55.688Z,24.00
2019-05-23T04:53:32.561Z,22.73
2019-05-23T04:54:08.754Z,25.40
2019-05-23T04:54:45.743Z,22.43
2019-05-23T04:55:22.489Z,24.10
2019-05-23T04:55:59.318Z,23.20
2019-05-23T04:56:36.622Z,23.63
2019-05-23T04:57:14.934Z,24.23
2019-05-23T04:57:52.712Z,20.30
2019-05-23T04:58:29.806Z,23.33
2019-05-23T04:59:05.400Z,23.07
2019-05-23T04:59:41.759Z,20.37
2019-05-23T05:00:19.198Z,21.93
2019-05-23T05:00:54.734Z,22.70
2019-05-23T05:01:32.562Z,22.20
2019-05-23T05:02:24.707Z,21.43
2019-05-23T05:02:47.951Z,24.37
2019-05-23T05:03:24.928Z,23.83
2019-05-23T05:04:01.967Z,25.00
2019-05-23T05:04:38.023Z,22.10
2019-05-23T05:05:15.477Z,23.20
2019-05-23T05:05:51.862Z,24.00
2019-05-23T05:06:27.799Z,23.93
2019-05-23T05:07:05.013Z,24.17
2019-05-23T05:07:41.784Z,24.67
2019-05-23T05:08:18.171Z,24.87
2019-05-23T05:08:55.400Z,22.53
2019-05-23T05:09:33.700Z,22.77
2019-05-23T05:10:12.044Z,26.20
2019-05-23T05:10:50.091Z,22.02
2019-05-23T05:11:30.200Z,25.50
2019-05-23T05:12:05.988Z,21.00
2019-05-23T05:12:42.481Z,24.30
2019-05-23T05:13:19.002Z,22.33
2019-05-23T05:13:55.293Z,23.33
2019-05-23T05:14:31.936Z,23.77
2019-05-23T05:15:09.016Z,23.37
2019-05-23T05:15:45.145Z,24.37
2019-05-23T05:16:21.295Z,25.60
2019-05-23T05:16:58.149Z,26.23
2019-05-23T05:17:34.165Z,23.70
2019-05-23T05:18:11.778Z,24.43
2019-05-23T05:18:48.364Z,25.50
2019-05-23T05:19:24.799Z,25.80
2019-05-23T05:20:01.560Z,26.13
2019-05-23T05:20:37.607Z,24.53
2019-05-23T05:21:13.561Z,24.47
2019-05-23T05:21:49.738Z,24.57
2019-05-23T05:22:26.765Z,25.03
2019-05-23T05:23:02.792Z,27.00
2019-05-23T05:23:39.663Z,24.87
2019-05-23T05:24:16.270Z,26.70
2019-05-23T05:24:52.271Z,23.67
2019-05-23T05:25:29.856Z,26.43
2019-05-23T05:26:08.167Z,21.73
2019-05-23T05:26:43.785Z,27.73
2019-05-23T05:27:20.800Z,26.50
2019-05-23T05:27:57.455Z,23.67
2019-05-23T05:28:33.549Z,24.43
2019-05-23T05:29:10.478Z,27.43
2019-05-23T05:29:47.109Z,25.50
2019-05-23T05:30:23.033Z,23.73
2019-05-23T05:30:59.212Z,23.93
2019-05-23T05:31:35.999Z,25.97
2019-05-23T05:32:13.481Z,23.33
2019-05-23T05:32:50.348Z,26.53
2019-05-23T05:33:26.523Z,23.30
2019-05-23T05:34:02.060Z,24.90
2019-05-23T05:34:38.488Z,24.33
2019-05-23T05:35:15.418Z,24.90
2019-05-23T05:35:51.144Z,24.97
2019-05-23T05:36:27.190Z,24.67
2019-05-23T05:37:03.584Z,26.93
2019-05-23T05:37:39.187Z,26.33
2019-05-23T05:38:16.059Z,25.20
2019-05-23T05:38:52.763Z,24.60
2019-05-23T05:39:28.615Z,24.83
2019-05-23T05:40:06.925Z,25.43
2019-05-23T05:40:43.419Z,24.63
2019-05-23T05:41:20.764Z,24.23
2019-05-23T05:41:57.900Z,26.40
2019-05-23T05:42:34.642Z,23.20
2019-05-23T05:43:10.750Z,23.30
2019-05-23T05:43:47.762Z,24.10
2019-05-23T05:44:24.025Z,27.93
2019-05-23T05:45:00.641Z,24.77
2019-05-23T05:45:36.933Z,23.33
2019-05-23T05:46:13.321Z,24.73
2019-05-23T05:46:48.885Z,25.23
2019-05-23T05:47:25.432Z,24.47
2019-05-23T05:48:01.958Z,25.00
2019-05-23T05:48:37.848Z,26.13
2019-05-23T05:49:15.053Z,22.57
2019-05-23T05:49:51.893Z,22.87
2019-05-23T05:50:27.682Z,28.37
2019-05-23T05:51:05.948Z,23.37
2019-05-23T05:51:42.434Z,25.00
2019-05-23T05:52:20.498Z,22.40
2019-05-23T05:52:56.829Z,24.13
2019-05-23T05:53:33.412Z,23.30
2019-05-23T05:54:09.818Z,24.83
2019-05-23T05:54:46.384Z,22.00
2019-05-23T05:55:22.940Z,23.73
2019-05-23T05:55:58.445Z,23.80
2019-05-23T05:56:35.013Z,26.43
2019-05-23T05:57:11.381Z,22.87
2019-05-23T05:57:47.306Z,25.30
2019-05-23T05:58:24.060Z,26.07
2019-05-23T05:59:00.227Z,24.07
2019-05-23T05:59:36.357Z,23.97
2019-05-23T06:00:31.385Z,26.13
2019-05-23T06:01:10.810Z,21.83
2019-05-23T06:01:47.614Z,23.50
2019-05-23T06:02:23.995Z,22.27
2019-05-23T06:03:05.003Z,25.87
2019-05-23T06:03:38.448Z,26.10
2019-05-23T06:04:14.819Z,24.90
2019-05-23T06:04:51.274Z,23.50
2019-05-23T06:05:35.575Z,22.30
2019-05-23T06:06:17.926Z,22.53
2019-05-23T06:07:27.877Z,24.93
2019-05-23T06:08:04.792Z,22.90
2019-05-23T06:08:42.825Z,23.10
2019-05-23T06:09:26.099Z,22.80
2019-05-23T06:10:03.649Z,24.63
2019-05-23T06:10:40.536Z,23.10
2019-05-23T06:11:16.846Z,22.10
2019-05-23T06:11:52.852Z,22.07
2019-05-23T06:12:29.239Z,22.10
2019-05-23T06:13:07.008Z,24.47
2019-05-23T06:13:43.013Z,23.50
2019-05-23T06:14:19.703Z,22.53
2019-05-23T06:14:55.873Z,21.63
2019-05-23T06:15:33.684Z,22.53
2019-05-23T06:16:11.019Z,25.67
2019-05-23T06:16:47.714Z,21.33
2019-05-23T06:17:23.268Z,24.97
2019-05-23T06:17:59.681Z,25.17
2019-05-23T06:18:36.116Z,24.53
2019-05-23T06:19:12.008Z,23.10
2019-05-23T06:19:48.333Z,25.03
2019-05-23T06:20:24.499Z,25.77
2019-05-23T06:21:01.877Z,22.60
2019-05-23T06:21:39.021Z,22.20
2019-05-23T06:22:15.925Z,22.20
2019-05-23T06:22:52.802Z,23.53
2019-05-23T06:23:30.371Z,22.07
2019-05-23T06:24:07.410Z,23.60
2019-05-23T06:24:49.148Z,23.67
2019-05-23T06:25:22.334Z,21.80
2019-05-23T06:25:58.502Z,25.20
2019-05-23T06:26:34.138Z,24.73
2019-05-23T06:27:13.271Z,21.83
2019-05-23T06:27:49.493Z,24.40
2019-05-23T06:28:25.446Z,23.03
2019-05-23T06:29:01.507Z,21.53
2019-05-23T06:29:38.203Z,26.20
2019-05-23T06:30:16.724Z,20.40
2019-05-23T06:30:52.798Z,20.90
2019-05-23T06:31:29.659Z,21.77
2019-05-23T06:32:08.299Z,21.03
2019-05-23T06:32:44.529Z,21.40
2019-05-23T06:33:23.959Z,22.07
2019-05-23T06:33:58.728Z,21.60
2019-05-23T06:34:35.848Z,22.03
2019-05-23T06:35:12.965Z,22.27
2019-05-23T06:35:48.993Z,20.57
2019-05-23T06:36:25.813Z,21.40
2019-05-23T06:37:02.545Z,22.33
2019-05-23T06:37:38.466Z,24.33
2019-05-23T06:38:14.790Z,23.23
2019-05-23T06:38:51.635Z,20.88
2019-05-23T06:39:27.133Z,24.70
2019-05-23T06:40:03.764Z,21.50
2019-05-23T06:40:40.777Z,22.33
2019-05-23T06:41:18.624Z,19.40
2019-05-23T06:41:55.231Z,22.90
2019-05-23T06:42:31.724Z,20.83
2019-05-23T06:43:07.720Z,20.90
2019-05-23T06:43:44.880Z,23.25
2019-05-23T06:44:21.633Z,20.25
2019-05-23T06:44:58.294Z,20.40
2019-05-23T06:45:34.602Z,19.87
2019-05-23T06:46:10.762Z,23.80
2019-05-23T06:46:46.274Z,22.70
2019-05-23T06:47:23.272Z,24.90
2019-05-23T06:48:00.330Z,21.57
2019-05-23T06:48:36.248Z,23.77
2019-05-23T06:49:13.185Z,20.27
2019-05-23T06:49:50.424Z,20.95
2019-05-23T06:50:26.062Z,21.53
2019-05-23T06:51:02.543Z,19.60
2019-05-23T06:51:38.849Z,20.10
2019-05-23T06:52:15.028Z,28.77
2019-05-23T06:52:52.203Z,20.47
2019-05-23T06:53:28.334Z,24.20
2019-05-23T06:54:04.346Z,22.13
2019-05-23T06:54:41.327Z,21.13
2019-05-23T06:55:17.798Z,21.10
2019-05-23T06:55:53.309Z,21.52
2019-05-23T06:56:29.612Z,21.03
2019-05-23T06:57:05.709Z,19.70
2019-05-23T06:57:42.895Z,20.97
2019-05-23T06:58:20.053Z,22.77
2019-05-23T06:58:57.176Z,23.60
2019-05-23T06:59:32.735Z,20.40
2019-05-23T07:00:09.257Z,19.93
2019-05-23T07:00:45.715Z,21.15
2019-05-23T07:01:21.407Z,20.50
2019-05-23T07:01:58.247Z,24.45
2019-05-23T07:02:35.160Z,20.72
2019-05-23T07:03:13.069Z,20.30
2019-05-23T07:03:50.670Z,21.15
2019-05-23T07:04:27.279Z,19.77
2019-05-23T07:05:02.821Z,21.03
2019-05-23T07:05:39.914Z,20.63
2019-05-23T07:06:19.195Z,21.82
2019-05-23T07:06:55.482Z,20.50
2019-05-23T07:07:33.091Z,23.57
2019-05-23T07:08:09.283Z,21.03
2019-05-23T07:08:45.015Z,21.93
2019-05-23T07:09:22.024Z,23.07
2019-05-23T07:09:58.617Z,19.80
2019-05-23T07:10:34.930Z,21.02
2019-05-23T07:11:11.256Z,20.60
2019-05-23T07:11:48.560Z,23.07
2019-05-23T07:12:24.033Z,26.77
2019-05-23T07:13:00.377Z,22.23
2019-05-23T07:13:37.542Z,28.77
2019-05-23T07:14:13.328Z,22.37
2019-05-23T07:14:49.852Z,23.47
2019-05-23T07:15:27.617Z,20.30
2019-05-23T07:16:05.024Z,20.20
2019-05-23T07:16:41.295Z,25.23
2019-05-23T07:17:20.240Z,21.07
2019-05-23T07:17:56.622Z,21.23
2019-05-23T07:18:33.312Z,23.95
2019-05-23T07:19:10.552Z,22.93
2019-05-23T07:19:47.678Z,23.52
2019-05-23T07:20:24.181Z,24.27
2019-05-23T07:21:00.983Z,24.40
2019-05-23T07:21:37.997Z,21.87
2019-05-23T07:22:18.359Z,23.45
2019-05-23T07:22:53.104Z,24.37
2019-05-23T07:23:29.684Z,21.50
2019-05-23T07:24:06.477Z,23.83
2019-05-23T07:24:57.287Z,21.97
2019-05-23T07:25:21.274Z,22.70
2019-05-23T07:25:58.142Z,22.20
2019-05-23T07:26:35.005Z,22.95
2019-05-23T07:27:10.755Z,25.73
2019-05-23T07:27:47.299Z,24.07
2019-05-23T07:28:24.460Z,22.75
2019-05-23T07:29:00.555Z,22.75
2019-05-23T07:29:37.465Z,27.00
2019-05-23T07:30:18.749Z,25.60
2019-05-23T07:30:55.177Z,24.77
2019-05-23T07:31:31.603Z,24.10
2019-05-23T07:32:09.318Z,23.22
2019-05-23T07:32:45.941Z,21.65
2019-05-23T07:33:22.514Z,23.27
2019-05-23T07:34:02.353Z,24.00
2019-05-23T07:34:36.865Z,24.07
2019-05-23T07:35:13.684Z,23.92
2019-05-23T07:35:50.165Z,22.62
2019-05-23T07:36:25.650Z,24.17
2019-05-23T07:37:02.533Z,23.52
2019-05-23T07:37:39.187Z,24.37
2019-05-23T07:38:15.706Z,23.75
2019-05-23T07:38:51.871Z,25.25
2019-05-23T07:39:28.993Z,22.60
2019-05-23T07:40:05.855Z,25.32
2019-05-23T07:40:43.073Z,25.75
2019-05-23T07:41:20.162Z,24.67
2019-05-23T07:41:55.646Z,24.30
2019-05-23T07:42:32.541Z,22.82
2019-05-23T07:43:09.004Z,23.80
2019-05-23T07:43:45.793Z,26.85
2019-05-23T07:44:23.183Z,26.40
2019-05-23T07:45:00.301Z,24.45
2019-05-23T07:45:41.776Z,23.20
2019-05-23T07:46:17.955Z,24.25
2019-05-23T07:46:54.671Z,20.37
2019-05-23T07:47:30.766Z,22.50
2019-05-23T07:48:07.490Z,24.95
2019-05-23T07:48:44.433Z,22.52
2019-05-23T07:49:20.829Z,23.42
2019-05-23T07:49:58.162Z,23.40
2019-05-23T07:50:34.923Z,23.20
2019-05-23T07:51:11.157Z,23.65
2019-05-23T07:51:48.359Z,22.87
2019-05-23T07:52:25.191Z,23.63
2019-05-23T07:53:02.361Z,22.13
2019-05-23T07:53:56.065Z,22.90
2019-05-23T07:54:40.907Z,23.83
2019-05-23T07:55:24.966Z,21.57
2019-05-23T07:56:02.211Z,22.82
2019-05-23T07:56:40.016Z,23.67
2019-05-23T07:57:16.343Z,21.23
2019-05-23T07:57:52.749Z,21.85
2019-05-23T07:58:30.188Z,24.92
2019-05-23T07:59:06.749Z,21.35
2019-05-23T07:59:43.527Z,21.87
2019-05-23T08:00:23.038Z,25.10
2019-05-23T08:01:00.539Z,24.57
2019-05-23T08:01:38.927Z,21.85
2019-05-23T08:02:27.913Z,20.30
2019-05-23T08:03:05.548Z,22.00
2019-05-23T08:03:42.519Z,21.30
2019-05-23T08:04:21.865Z,23.07
2019-05-23T08:04:57.036Z,25.60
2019-05-23T08:05:33.486Z,24.80
2019-05-23T08:06:10.682Z,22.45
2019-05-23T08:06:49.017Z,26.12
2019-05-23T08:07:27.053Z,24.92
2019-05-23T08:08:05.213Z,24.32
2019-05-23T08:08:42.042Z,22.22
2019-05-23T08:09:18.551Z,24.00
2019-05-23T08:09:56.116Z,23.42
2019-05-23T08:10:34.001Z,22.10